Time;durP1;ratioP1;P1;durP2;ratioP2;P2;SDS_P1;SDS_P2;PMS_P1;PMS_P2;Temp;Humidity;BMP_temperature;BMP_pressure;BME280_temperature;BME280_humidity;BME280_pressure;Samples;Min_cycle;Max_cycle;Signal;HPM_P1;HPM_P2
2024/04/12 00:00:57;;;;;;;9.02;2.67;;;12.80;99.90;;;;;;5359340;26;20000;-59
2024/04/12 00:03:22;;;;;;;9.05;2.15;;;12.80;99.90;;;;;;5371621;26;20436;-55
2024/04/12 00:05:48;;;;;;;9.52;2.10;;;12.80;99.90;;;;;;5357339;26;20012;-58
2024/04/12 00:08:15;;;;;;;5.63;2.58;;;12.80;99.90;;;;;;5359749;26;20488;-57
2024/04/12 00:10:41;;;;;;;5.28;2.05;;;12.80;99.90;;;;;;5362620;26;20358;-58
2024/04/12 00:13:07;;;;;;;6.68;1.83;;;12.90;99.90;;;;;;5366880;26;19992;-59
2024/04/12 00:15:33;;;;;;;7.93;2.20;;;12.80;99.90;;;;;;5359403;26;20000;-59
2024/04/12 00:18:00;;;;;;;6.65;2.22;;;12.90;99.90;;;;;;5355801;26;20455;-57
2024/04/12 00:20:28;;;;;;;6.13;2.63;;;12.80;99.90;;;;;;5352361;26;20464;-58
2024/04/12 00:22:55;;;;;;;4.97;2.22;;;12.90;99.90;;;;;;5353527;26;20000;-57
2024/04/12 00:25:23;;;;;;;5.78;2.20;;;12.90;99.90;;;;;;5368840;26;20053;-59
2024/04/12 00:27:49;;;;;;;5.85;2.67;;;12.90;99.90;;;;;;5353418;26;20037;-59
2024/04/12 00:30:37;;;;;;;5.85;1.92;;;12.90;99.90;;;;;;5364362;26;19997;-59
2024/04/12 00:33:09;;;;;;;5.72;2.83;;;12.90;99.90;;;;;;5351066;26;20061;-59
2024/04/12 00:35:38;;;;;;;9.13;3.45;;;12.90;99.90;;;;;;5357857;26;20036;-58
2024/04/12 00:38:09;;;;;;;5.57;2.25;;;12.90;99.90;;;;;;5361211;26;19996;-59
2024/04/12 00:40:36;;;;;;;8.77;2.45;;;12.90;99.90;;;;;;5355564;26;20449;-59
2024/04/12 00:43:15;;;;;;;5.45;2.67;;;12.90;99.90;;;;;;5359692;26;19996;-58
2024/04/12 00:45:45;;;;;;;7.53;2.00;;;12.90;99.90;;;;;;5366400;26;20425;-58
2024/04/12 00:48:12;;;;;;;10.55;3.85;;;12.90;99.90;;;;;;5360653;26;19996;-58
2024/04/12 00:50:40;;;;;;;8.60;2.28;;;12.90;99.90;;;;;;5355871;26;20442;-56
2024/04/12 00:53:09;;;;;;;6.75;2.40;;;12.90;99.90;;;;;;5364471;26;20000;-59
2024/04/12 00:55:41;;;;;;;6.35;2.33;;;12.90;99.90;;;;;;5370554;26;20010;-58
2024/04/12 00:58:11;;;;;;;6.43;1.90;;;12.90;99.90;;;;;;5352211;26;19993;-59
2024/04/12 01:00:37;;;;;;;3.85;2.13;;;12.90;99.90;;;;;;5365528;26;20351;-59
2024/04/12 01:03:05;;;;;;;4.30;2.30;;;12.90;99.90;;;;;;5358655;26;20103;-58
2024/04/12 01:05:38;;;;;;;6.38;2.20;;;12.90;99.90;;;;;;5353810;26;19993;-54
2024/04/12 01:08:06;;;;;;;10.10;2.20;;;12.90;99.90;;;;;;5366702;26;20004;-55
2024/04/12 01:10:36;;;;;;;6.72;2.03;;;12.80;99.90;;;;;;5360751;26;20400;-58
2024/04/12 01:13:03;;;;;;;5.70;2.10;;;12.80;99.90;;;;;;5363170;26;20008;-58
2024/04/12 01:15:37;;;;;;;6.18;2.33;;;12.80;99.90;;;;;;5361665;26;20008;-58
2024/04/12 01:18:04;;;;;;;3.72;1.90;;;12.80;99.90;;;;;;5367072;26;20015;-57
2024/04/12 01:20:35;;;;;;;8.15;2.22;;;12.80;99.90;;;;;;5362448;26;20333;-59
2024/04/12 01:23:00;;;;;;;9.90;2.53;;;12.80;99.90;;;;;;5364832;26;20011;-58
2024/04/12 01:25:28;;;;;;;4.35;1.92;;;12.80;99.90;;;;;;5364279;26;19997;-57
2024/04/12 01:27:55;;;;;;;9.82;1.92;;;12.80;99.90;;;;;;5364068;26;20000;-57
2024/04/12 01:30:21;;;;;;;4.10;1.73;;;12.80;99.90;;;;;;5364470;26;20000;-58
2024/04/12 01:32:50;;;;;;;7.90;1.85;;;12.80;99.90;;;;;;5361899;26;19997;-56
2024/04/12 01:35:24;;;;;;;7.65;2.33;;;12.70;99.90;;;;;;5361647;26;22392;-57
2024/04/12 01:37:52;;;;;;;7.95;2.10;;;12.70;99.90;;;;;;5364620;26;20009;-55
2024/04/12 01:40:22;;;;;;;7.80;2.95;;;12.60;99.90;;;;;;5366658;26;20004;-59
2024/04/12 01:42:48;;;;;;;7.63;2.08;;;12.40;99.90;;;;;;5368670;26;20070;-57
2024/04/12 01:45:14;;;;;;;12.07;3.00;;;12.30;99.90;;;;;;5365329;26;20054;-59
2024/04/12 01:47:45;;;;;;;6.85;2.45;;;12.20;99.90;;;;;;5362829;26;20015;-59
2024/04/12 01:50:13;;;;;;;11.05;3.55;;;12.00;99.90;;;;;;5351993;26;20000;-58
2024/04/12 01:52:53;;;;;;;4.82;2.50;;;11.90;99.90;;;;;;5362334;26;20241;-57
2024/04/12 01:55:20;;;;;;;5.82;3.03;;;11.80;99.90;;;;;;5354308;26;20521;-58
2024/04/12 01:57:55;;;;;;;6.03;2.60;;;11.60;99.90;;;;;;5356577;26;20502;-59
2024/04/12 02:00:23;;;;;;;4.22;2.60;;;11.60;99.90;;;;;;5365054;26;20000;-59
2024/04/12 02:02:53;;;;;;;10.77;2.80;;;11.50;99.90;;;;;;5357435;26;20015;-58
2024/04/12 02:05:29;;;;;;;6.50;2.78;;;11.60;99.90;;;;;;5356329;26;20000;-58
2024/04/12 02:08:08;;;;;;;11.35;3.17;;;11.70;99.90;;;;;;5352376;26;20016;-58
2024/04/12 02:10:41;;;;;;;4.50;2.75;;;11.70;99.90;;;;;;5345226;26;20005;-57
2024/04/12 02:13:10;;;;;;;6.35;3.60;;;11.80;99.90;;;;;;5354703;26;20000;-58
2024/04/12 02:15:36;;;;;;;7.25;2.75;;;11.80;99.90;;;;;;5359438;26;20336;-58
2024/04/12 02:18:04;;;;;;;5.68;2.70;;;11.90;99.90;;;;;;5373524;26;20000;-61
2024/04/12 02:20:36;;;;;;;6.10;2.97;;;11.90;99.90;;;;;;5380023;26;20482;-61
2024/04/12 02:23:06;;;;;;;9.43;2.75;;;12.00;99.90;;;;;;5380092;26;20435;-62
2024/04/12 02:25:35;;;;;;;8.90;2.35;;;12.10;99.90;;;;;;5379867;26;19996;-61
2024/04/12 02:28:07;;;;;;;5.00;3.38;;;12.10;99.90;;;;;;5380087;26;20796;-61
2024/04/12 02:30:46;;;;;;;5.88;3.13;;;12.20;99.90;;;;;;5379851;26;20397;-62
2024/04/12 02:33:16;;;;;;;5.85;2.72;;;12.20;99.90;;;;;;5377787;26;20008;-62
2024/04/12 02:35:42;;;;;;;12.02;4.15;;;12.30;99.90;;;;;;5379603;26;20000;-62
2024/04/12 02:38:15;;;;;;;7.85;3.30;;;12.30;99.90;;;;;;5379565;26;20397;-62
2024/04/12 02:40:45;;;;;;;10.70;3.10;;;12.30;99.90;;;;;;5379640;26;20073;-61
2024/04/12 02:43:15;;;;;;;5.25;2.58;;;12.30;99.90;;;;;;5379767;26;20015;-62
2024/04/12 02:46:10;;;;;;;8.13;2.65;;;12.40;99.90;;;;;;5379253;26;20008;-60
2024/04/12 02:48:40;;;;;;;5.68;2.67;;;12.40;99.90;;;;;;5378350;26;20000;-61
2024/04/12 02:51:06;;;;;;;5.13;2.55;;;12.40;99.90;;;;;;5379313;26;20000;-62
2024/04/12 02:53:35;;;;;;;8.10;3.58;;;12.40;99.90;;;;;;5379314;26;19996;-62
2024/04/12 02:56:08;;;;;;;8.20;2.90;;;12.40;99.90;;;;;;5380821;26;20059;-60
2024/04/12 02:58:54;;;;;;;6.82;2.55;;;12.40;99.90;;;;;;5380878;26;20040;-60
2024/04/12 03:01:24;;;;;;;10.25;2.65;;;12.40;99.90;;;;;;5382496;26;19996;-60
2024/04/12 03:03:55;;;;;;;8.23;2.50;;;12.40;99.90;;;;;;5382640;26;20000;-62
2024/04/12 03:06:23;;;;;;;5.60;3.08;;;12.40;99.90;;;;;;5382798;26;19996;-60
2024/04/12 03:08:53;;;;;;;7.90;2.65;;;12.40;99.90;;;;;;5382649;26;20073;-62
2024/04/12 03:11:25;;;;;;;8.25;2.85;;;12.30;99.90;;;;;;5382626;26;20330;-61
2024/04/12 03:14:07;;;;;;;9.23;3.47;;;12.30;99.90;;;;;;5382653;26;20411;-61
2024/04/12 03:16:34;;;;;;;9.13;2.70;;;12.20;99.90;;;;;;5382495;26;20058;-60
2024/04/12 03:19:07;;;;;;;4.55;2.35;;;12.10;99.90;;;;;;5382719;26;20008;-62
2024/04/12 03:21:32;;;;;;;7.45;2.42;;;12.10;99.90;;;;;;5380859;26;20081;-61
2024/04/12 03:23:58;;;;;;;7.60;3.25;;;12.00;99.90;;;;;;5382461;26;20008;-61
2024/04/12 03:26:24;;;;;;;12.27;3.08;;;12.00;99.90;;;;;;5382629;26;20458;-60
2024/04/12 03:28:54;;;;;;;7.60;2.70;;;11.90;99.90;;;;;;5380573;26;20000;-61
2024/04/12 03:31:25;;;;;;;5.70;3.33;;;11.90;99.90;;;;;;5382537;26;20011;-62
2024/04/12 03:33:54;;;;;;;10.63;2.55;;;11.90;99.90;;;;;;5382411;26;19996;-62
2024/04/12 03:41:46;;;;;;;8.77;2.90;;;11.90;99.90;;;;;;5382374;26;20347;-61
2024/04/12 03:44:13;;;;;;;6.93;2.45;;;11.90;99.90;;;;;;5380705;26;20048;-61
2024/04/12 03:46:49;;;;;;;4.82;2.35;;;12.00;99.90;;;;;;5382552;26;20083;-62
2024/04/12 03:49:16;;;;;;;7.28;2.38;;;12.00;99.90;;;;;;5382486;26;20004;-61
2024/04/12 03:51:46;;;;;;;7.55;2.45;;;12.00;99.90;;;;;;5382032;26;20004;-62
2024/04/12 03:54:12;;;;;;;6.53;2.05;;;12.00;99.90;;;;;;5382202;26;20000;-61
2024/04/12 03:56:38;;;;;;;9.52;1.88;;;12.10;99.90;;;;;;5382016;26;20004;-61
2024/04/12 03:59:04;;;;;;;6.10;2.03;;;12.10;99.90;;;;;;5382049;26;20078;-62
2024/04/12 04:01:31;;;;;;;10.23;2.75;;;12.10;99.90;;;;;;5380482;26;20010;-61
2024/04/12 04:04:10;;;;;;;9.20;2.97;;;12.20;99.90;;;;;;5380354;26;20022;-61
2024/04/12 04:06:38;;;;;;;7.68;2.30;;;12.20;99.90;;;;;;5381725;26;19996;-61
2024/04/12 04:09:10;;;;;;;5.47;2.50;;;12.20;99.90;;;;;;5381917;26;20012;-60
2024/04/12 04:11:42;;;;;;;3.75;2.13;;;12.20;99.90;;;;;;5381854;26;19996;-59
2024/04/12 04:14:09;;;;;;;4.05;2.25;;;12.20;99.90;;;;;;5381910;26;20000;-60
2024/04/12 04:16:38;;;;;;;5.15;1.98;;;12.20;99.90;;;;;;5381913;26;20003;-61
2024/04/12 04:19:03;;;;;;;3.50;1.90;;;12.20;99.90;;;;;;5381966;26;20408;-62
2024/04/12 04:21:33;;;;;;;4.35;2.03;;;12.20;99.90;;;;;;5381811;26;20012;-60
2024/04/12 04:24:08;;;;;;;3.20;1.90;;;12.20;99.90;;;;;;5381809;26;20011;-62
2024/04/12 04:26:38;;;;;;;9.40;3.58;;;12.20;99.90;;;;;;5381405;26;20032;-62
2024/04/12 04:29:09;;;;;;;11.13;2.40;;;12.20;99.90;;;;;;5381387;26;20036;-61
2024/04/12 04:31:44;;;;;;;6.47;2.95;;;12.20;99.90;;;;;;5381556;26;20015;-62
2024/04/12 04:34:12;;;;;;;3.83;2.42;;;12.20;99.90;;;;;;5381599;26;19997;-61
2024/04/12 04:36:39;;;;;;;7.88;2.00;;;12.20;99.90;;;;;;5381299;26;20069;-61
2024/04/12 04:39:06;;;;;;;4.78;2.20;;;12.20;99.90;;;;;;5378866;26;20005;-61
2024/04/12 04:41:32;;;;;;;5.25;2.17;;;12.20;99.90;;;;;;5380458;26;20014;-60
2024/04/12 04:43:59;;;;;;;10.07;2.28;;;12.20;99.90;;;;;;5380431;26;20334;-62
2024/04/12 04:46:28;;;;;;;9.32;2.60;;;12.20;99.90;;;;;;5380788;26;20019;-62
2024/04/12 04:48:54;;;;;;;3.90;1.90;;;12.20;99.90;;;;;;5381004;26;20044;-62
2024/04/12 04:51:20;;;;;;;4.97;1.95;;;12.20;99.90;;;;;;5380755;26;20000;-58
2024/04/12 04:53:46;;;;;;;4.13;2.00;;;12.20;99.90;;;;;;5380772;26;20012;-60
2024/04/12 04:56:12;;;;;;;5.22;1.75;;;12.20;99.90;;;;;;5380667;26;20342;-61
2024/04/12 04:58:44;;;;;;;5.68;1.98;;;12.30;99.90;;;;;;5380776;26;20018;-60
2024/04/12 05:01:11;;;;;;;7.45;2.15;;;12.20;99.90;;;;;;5380817;26;20346;-61
2024/04/12 05:03:37;;;;;;;6.30;2.95;;;12.30;99.90;;;;;;5380731;26;20397;-61
2024/04/12 05:06:06;;;;;;;9.95;3.17;;;12.30;99.90;;;;;;5380583;26;20000;-62
2024/04/12 05:08:35;;;;;;;5.43;2.35;;;12.30;99.90;;;;;;5378612;26;20032;-61
2024/04/12 05:11:05;;;;;;;9.52;1.75;;;12.30;99.90;;;;;;5380112;26;20004;-62
2024/04/12 05:13:37;;;;;;;4.50;2.15;;;12.30;99.90;;;;;;5380259;26;20077;-61
2024/04/12 05:16:09;;;;;;;6.80;2.72;;;12.30;99.90;;;;;;5378055;26;20111;-62
2024/04/12 05:18:38;;;;;;;5.03;2.22;;;12.30;99.90;;;;;;5377729;26;20012;-63
2024/04/12 05:21:03;;;;;;;6.45;1.95;;;12.30;99.90;;;;;;5380900;26;20014;-62
2024/04/12 05:23:29;;;;;;;3.95;1.88;;;12.40;99.90;;;;;;5380743;26;20000;-61
2024/04/12 05:25:55;;;;;;;4.53;1.50;;;12.40;99.90;;;;;;5380853;26;20441;-62
2024/04/12 05:28:21;;;;;;;9.82;1.80;;;12.40;99.90;;;;;;5380859;26;20007;-60
2024/04/12 05:30:50;;;;;;;8.38;2.25;;;12.40;99.90;;;;;;5378929;26;20000;-62
2024/04/12 05:33:22;;;;;;;5.95;1.58;;;12.50;99.90;;;;;;5380676;26;20016;-61
2024/04/12 05:35:47;;;;;;;4.97;2.10;;;12.50;99.90;;;;;;5378586;26;20010;-61
2024/04/12 05:38:13;;;;;;;4.88;1.55;;;12.50;99.90;;;;;;5379962;26;20019;-61
2024/04/12 05:40:45;;;;;;;7.50;1.75;;;12.50;99.90;;;;;;5380003;26;20019;-62
2024/04/12 05:43:15;;;;;;;5.65;1.50;;;12.60;99.90;;;;;;5378463;26;20000;-64
2024/04/12 05:45:41;;;;;;;4.38;1.90;;;12.50;99.90;;;;;;5379848;26;20379;-63
2024/04/12 05:48:12;;;;;;;5.28;1.77;;;12.60;99.90;;;;;;5379887;26;20005;-62
2024/04/12 05:50:42;;;;;;;3.95;1.90;;;12.60;99.90;;;;;;5380398;26;20462;-63
2024/04/12 05:53:11;;;;;;;6.57;1.50;;;12.60;99.90;;;;;;5380205;26;20001;-62
2024/04/12 05:55:44;;;;;;;7.38;1.77;;;12.60;99.90;;;;;;5380172;26;20004;-62
2024/04/12 05:58:23;;;;;;;5.07;1.83;;;12.60;99.90;;;;;;5380450;26;20015;-61
2024/04/12 06:00:50;;;;;;;4.72;2.15;;;12.70;99.90;;;;;;5379955;26;20335;-62
2024/04/12 06:03:16;;;;;;;3.60;1.60;;;12.80;99.90;;;;;;5378505;26;20103;-61
2024/04/12 06:05:42;;;;;;;5.55;1.75;;;12.80;99.90;;;;;;5380199;26;20384;-62
2024/04/12 06:08:08;;;;;;;2.95;1.70;;;12.80;99.90;;;;;;5380183;26;20055;-62
2024/04/12 06:10:33;;;;;;;2.35;1.58;;;12.90;99.90;;;;;;5407657;26;20008;-62
2024/04/12 06:13:06;;;;;;;2.97;1.33;;;13.00;99.90;;;;;;5379804;26;20008;-60
2024/04/12 06:15:36;;;;;;;7.93;1.70;;;13.00;99.90;;;;;;5380439;26;20054;-60
2024/04/12 06:18:05;;;;;;;5.35;1.63;;;13.10;99.90;;;;;;5380157;26;20012;-62
2024/04/12 06:20:33;;;;;;;5.82;1.90;;;13.10;99.90;;;;;;5407853;26;20346;-62
2024/04/12 06:22:59;;;;;;;3.97;1.80;;;13.20;99.90;;;;;;5380157;26;20019;-61
2024/04/12 06:25:25;;;;;;;5.63;1.75;;;13.20;99.90;;;;;;5379806;26;20008;-62
2024/04/12 06:27:52;;;;;;;5.25;1.77;;;13.20;99.90;;;;;;5379520;26;20008;-62
2024/04/12 06:30:24;;;;;;;4.47;1.90;;;13.20;99.90;;;;;;5380885;26;20019;-62
2024/04/12 06:32:57;;;;;;;7.65;1.40;;;13.30;99.90;;;;;;5383519;26;20011;-62
2024/04/12 06:35:28;;;;;;;3.90;1.60;;;13.30;99.90;;;;;;5383913;26;20383;-62
2024/04/12 06:37:54;;;;;;;8.82;1.95;;;13.30;99.90;;;;;;5383628;26;20522;-62
2024/04/12 06:40:20;;;;;;;9.32;2.05;;;13.30;99.90;;;;;;5383204;26;20000;-62
2024/04/12 06:42:47;;;;;;;6.43;1.65;;;13.30;99.90;;;;;;5383101;26;20015;-61
2024/04/12 06:45:15;;;;;;;4.88;2.05;;;13.30;99.90;;;;;;5382789;26;20005;-62
2024/04/12 06:47:41;;;;;;;5.90;2.25;;;13.40;99.90;;;;;;5382854;26;20004;-61
2024/04/12 06:50:08;;;;;;;6.35;2.05;;;13.60;99.90;;;;;;5382614;26;20040;-62
2024/04/12 06:52:37;;;;;;;7.30;2.63;;;13.70;99.90;;;;;;5382821;26;20454;-62
2024/04/12 06:55:07;;;;;;;9.02;1.80;;;13.90;99.90;;;;;;5382654;26;20001;-62
2024/04/12 06:57:33;;;;;;;5.32;1.75;;;14.00;99.90;;;;;;5382765;26;20695;-62
2024/04/12 07:00:00;;;;;;;4.82;1.90;;;14.20;99.90;;;;;;5382602;26;20006;-61
2024/04/12 07:02:29;;;;;;;4.47;1.90;;;14.20;99.90;;;;;;5382509;26;20000;-62
2024/04/12 07:04:56;;;;;;;6.95;2.22;;;14.20;99.90;;;;;;5382564;26;20008;-62
2024/04/12 07:07:23;;;;;;;7.55;2.08;;;14.20;99.90;;;;;;5382392;26;20034;-61
2024/04/12 07:09:59;;;;;;;3.63;1.88;;;14.20;99.90;;;;;;5382191;26;20061;-61
2024/04/12 07:12:27;;;;;;;4.07;2.03;;;14.10;99.90;;;;;;5382398;26;20008;-61
2024/04/12 07:14:56;;;;;;;8.52;2.10;;;14.00;99.90;;;;;;5360231;26;20016;-62
2024/04/12 07:17:23;;;;;;;4.40;2.40;;;14.00;99.90;;;;;;5347212;26;20015;-62
2024/04/12 07:19:54;;;;;;;10.73;2.70;;;13.90;99.90;;;;;;5345524;26;20033;-62
2024/04/12 07:22:27;;;;;;;4.35;2.15;;;13.90;99.90;;;;;;5346924;26;20004;-61
2024/04/12 07:24:54;;;;;;;9.77;2.65;;;13.90;99.90;;;;;;5347389;26;20001;-62
2024/04/12 07:27:27;;;;;;;4.50;2.00;;;13.80;99.90;;;;;;5347220;26;20001;-61
2024/04/12 07:29:53;;;;;;;5.72;2.17;;;13.80;99.90;;;;;;5347574;26;20016;-61
2024/04/12 07:32:22;;;;;;;4.95;1.95;;;13.80;99.90;;;;;;5347575;26;20351;-62
2024/04/12 07:34:48;;;;;;;5.97;1.80;;;13.70;99.90;;;;;;5345614;26;20016;-62
2024/04/12 07:37:36;;;;;;;6.03;1.80;;;13.70;99.90;;;;;;5347563;26;19997;-62
2024/04/12 07:40:24;;;;;;;6.18;2.22;;;13.70;99.90;;;;;;5347186;26;20012;-64
2024/04/12 07:42:52;;;;;;;3.10;2.20;;;13.80;99.90;;;;;;5346180;26;20016;-62
2024/04/12 07:45:23;;;;;;;5.90;3.25;;;13.80;99.90;;;;;;5345018;26;20078;-62
2024/04/12 07:47:53;;;;;;;10.13;3.42;;;14.00;99.90;;;;;;5345311;26;20015;-62
2024/04/12 07:50:21;;;;;;;2.53;1.58;;;14.10;99.90;;;;;;5346283;26;20001;-62
2024/04/12 07:52:50;;;;;;;2.85;2.03;;;14.10;99.90;;;;;;5346523;26;20016;-62
2024/04/12 07:55:24;;;;;;;5.20;1.50;;;14.20;99.90;;;;;;5346670;26;20015;-61
2024/04/12 07:57:53;;;;;;;4.70;1.17;;;14.30;99.90;;;;;;5346659;26;20001;-62
2024/04/12 08:00:35;;;;;;;3.83;1.77;;;14.40;99.90;;;;;;5346181;26;20016;-62
2024/04/12 08:03:06;;;;;;;6.93;2.15;;;14.30;99.90;;;;;;5346504;26;20019;-62
2024/04/12 08:05:59;;;;;;;11.77;1.85;;;14.30;99.90;;;;;;5344811;26;20013;-61
2024/04/12 08:08:27;;;;;;;4.43;1.65;;;14.30;99.90;;;;;;5345943;26;20070;-61
2024/04/12 08:11:12;;;;;;;2.38;1.30;;;14.40;99.90;;;;;;5346502;26;20012;-59
2024/04/12 08:13:50;;;;;;;3.20;1.40;;;14.50;99.90;;;;;;5346489;26;20005;-63
2024/04/12 08:16:16;;;;;;;3.22;1.60;;;14.50;99.90;;;;;;5346288;26;20005;-60
2024/04/12 08:18:44;;;;;;;5.45;1.77;;;14.60;99.90;;;;;;5367535;26;20401;-59
2024/04/12 08:21:12;;;;;;;4.70;1.33;;;14.70;99.90;;;;;;5357991;26;20009;-58
2024/04/12 08:23:44;;;;;;;2.22;1.50;;;14.80;99.90;;;;;;5371227;26;20008;-57
2024/04/12 08:26:16;;;;;;;2.28;1.70;;;15.20;99.90;;;;;;5374426;26;20078;-58
2024/04/12 08:28:43;;;;;;;4.22;1.38;;;15.30;99.90;;;;;;5363899;26;20445;-59
2024/04/12 08:31:12;;;;;;;1.67;1.20;;;15.20;99.90;;;;;;5374199;26;20065;-58
2024/04/12 08:33:45;;;;;;;4.25;1.45;;;15.30;99.90;;;;;;5364279;26;20012;-59
2024/04/12 08:36:14;;;;;;;2.17;1.35;;;15.40;99.90;;;;;;5351539;26;20114;-58
2024/04/12 08:38:54;;;;;;;3.83;1.70;;;15.50;99.90;;;;;;5361714;26;20442;-58
2024/04/12 08:41:23;;;;;;;4.53;1.67;;;15.50;99.90;;;;;;5368982;26;20032;-60
2024/04/12 08:43:54;;;;;;;2.05;1.58;;;15.60;99.90;;;;;;5355499;26;20477;-59
2024/04/12 08:46:25;;;;;;;3.75;1.73;;;15.70;99.90;;;;;;5363828;26;20000;-59
2024/04/12 08:48:51;;;;;;;2.53;1.27;;;15.70;99.90;;;;;;5369352;26;20000;-59
2024/04/12 08:51:21;;;;;;;3.85;1.50;;;15.70;99.90;;;;;;5361969;26;20001;-59
2024/04/12 08:53:55;;;;;;;2.38;1.30;;;15.80;99.90;;;;;;5354844;26;19996;-59
2024/04/12 08:56:23;;;;;;;3.53;1.60;;;15.70;99.90;;;;;;5370838;26;20000;-60
2024/04/12 08:58:52;;;;;;;2.72;1.10;;;15.90;99.90;;;;;;5369959;26;20013;-59
2024/04/12 09:01:23;;;;;;;2.65;1.02;;;15.90;99.90;;;;;;5372345;26;19996;-59
2024/04/12 09:03:52;;;;;;;2.75;1.25;;;16.20;99.90;;;;;;5367845;26;20075;-60
2024/04/12 09:06:23;;;;;;;7.97;3.20;;;16.30;99.90;;;;;;5360695;26;20447;-59
2024/04/12 09:08:53;;;;;;;4.00;1.73;;;16.60;99.90;;;;;;5362282;26;20037;-59
2024/04/12 09:11:25;;;;;;;4.55;1.50;;;16.90;99.90;;;;;;5362328;26;20004;-60
2024/04/12 09:13:52;;;;;;;3.30;1.23;;;17.60;99.90;;;;;;5361677;26;20009;-59
2024/04/12 09:16:23;;;;;;;3.47;1.60;;;17.80;99.90;;;;;;5365190;26;20447;-60
2024/04/12 09:18:51;;;;;;;1.95;1.23;;;18.10;99.90;;;;;;5366754;26;20016;-59
2024/04/12 09:21:24;;;;;;;3.08;1.60;;;18.30;99.90;;;;;;5365478;26;19997;-60
2024/04/12 09:23:50;;;;;;;;;;;18.30;99.90;;;;;;5363877;26;20073;-59
2024/04/12 09:26:24;;;;;;;2.83;1.40;;;18.20;99.90;;;;;;5368230;26;19925;-60
2024/04/12 09:29:16;;;;;;;1.65;1.30;;;18.10;99.90;;;;;;5361766;26;20015;-59
2024/04/12 09:34:35;;;;;;;2.83;1.48;;;17.90;99.90;;;;;;5364736;26;20011;-60
2024/04/12 09:37:04;;;;;;;2.33;1.60;;;17.90;99.90;;;;;;5365330;26;20326;-60
2024/04/12 09:40:03;;;;;;;5.95;1.90;;;17.60;99.90;;;;;;5355278;26;20040;-58
2024/04/12 09:45:20;;;;;;;3.50;1.85;;;17.30;99.90;;;;;;5364943;26;20503;-60
2024/04/12 10:37:48;;;;;;;4.72;2.30;;;19.90;99.90;;;;;;5367917;26;20011;-60
2024/04/12 10:40:16;;;;;;;5.32;1.40;;;19.80;99.90;;;;;;5364646;26;20785;-61
2024/04/12 10:42:45;;;;;;;2.25;1.38;;;19.40;99.90;;;;;;5363685;26;20362;-60
2024/04/12 10:45:15;;;;;;;2.45;1.77;;;19.20;99.90;;;;;;5367254;26;19996;-60
2024/04/12 10:47:44;;;;;;;2.75;1.58;;;19.10;99.90;;;;;;5372371;26;19996;-61
2024/04/12 10:50:10;;;;;;;5.15;1.52;;;18.90;99.90;;;;;;5377681;26;20037;-60
2024/04/12 10:52:38;;;;;;;5.68;2.13;;;19.00;99.90;;;;;;5377772;26;20000;-61
2024/04/12 10:55:09;;;;;;;4.68;1.77;;;18.90;99.90;;;;;;5371181;26;20011;-58
2024/04/12 10:57:41;;;;;;;4.43;2.03;;;18.70;99.90;;;;;;5359693;26;20032;-58
2024/04/12 11:00:14;;;;;;;2.53;2.15;;;18.70;99.90;;;;;;5357722;26;20008;-60
2024/04/12 11:02:45;;;;;;;2.30;1.40;;;18.90;99.90;;;;;;5359813;26;20015;-60
2024/04/12 11:07:50;;;;;;;6.75;2.10;;;19.00;99.90;;;;;;5348702;26;20347;-58
2024/04/12 11:10:38;;;;;;;4.30;2.10;;;19.00;99.90;;;;;;5365446;26;20727;-60
2024/04/12 11:13:07;;;;;;;3.20;1.90;;;18.90;99.90;;;;;;5365485;26;20003;-58
2024/04/12 11:31:55;;;;;;;3.13;2.05;;;19.00;99.90;;;;;;5366214;26;20016;-59
2024/04/12 11:34:21;;;;;;;6.65;2.53;;;19.10;99.90;;;;;;5360196;26;20077;-60
2024/04/12 11:36:46;;;;;;;3.72;2.08;;;19.40;99.90;;;;;;5360623;26;20421;-61
2024/04/12 11:39:25;;;;;;;3.38;2.28;;;19.30;99.90;;;;;;5366625;26;20016;-57
2024/04/12 11:41:51;;;;;;;3.67;1.80;;;19.50;99.90;;;;;;5361070;26;20062;-57
2024/04/12 11:44:19;;;;;;;3.38;1.85;;;19.50;99.90;;;;;;5354246;26;20005;-58
2024/04/12 11:46:45;;;;;;;8.02;2.05;;;19.30;99.90;;;;;;5355332;26;20001;-61
2024/04/12 11:49:12;;;;;;;4.20;1.92;;;19.20;99.90;;;;;;5347950;26;20077;-59
2024/04/12 11:51:39;;;;;;;4.25;2.15;;;19.30;99.90;;;;;;5358451;26;20000;-58
2024/04/12 11:54:05;;;;;;;6.03;1.70;;;19.50;99.90;;;;;;5362017;26;20000;-57
2024/04/12 11:56:34;;;;;;;5.28;2.10;;;19.80;99.90;;;;;;5366358;26;20022;-58
2024/04/12 11:59:00;;;;;;;3.22;1.65;;;19.90;99.90;;;;;;5367514;26;20013;-60
2024/04/12 12:01:28;;;;;;;3.75;1.48;;;19.90;99.90;;;;;;5359760;26;20007;-60
2024/04/12 12:03:56;;;;;;;6.30;2.72;;;20.00;99.90;;;;;;5367657;26;20009;-60
2024/04/12 12:06:22;;;;;;;2.92;1.98;;;19.90;99.90;;;;;;5363719;26;20008;-60
2024/04/12 12:08:57;;;;;;;5.93;2.67;;;19.80;99.90;;;;;;5364945;26;20096;-60
2024/04/12 12:11:27;;;;;;;6.13;2.13;;;19.70;99.90;;;;;;5359717;26;20015;-61
2024/04/12 12:13:53;;;;;;;4.93;1.90;;;19.60;99.90;;;;;;5372615;26;19996;-60
2024/04/12 12:16:20;;;;;;;4.20;1.95;;;19.50;99.90;;;;;;5381563;26;20004;-62
2024/04/12 12:18:45;;;;;;;4.03;1.70;;;19.40;99.90;;;;;;5408948;26;20363;-61
2024/04/12 12:21:11;;;;;;;3.67;2.17;;;19.20;99.90;;;;;;5381303;26;20023;-60
2024/04/12 12:23:37;;;;;;;8.77;2.40;;;19.00;99.90;;;;;;5346402;26;20025;-60
2024/04/12 12:26:03;;;;;;;4.95;1.92;;;18.80;99.90;;;;;;5345989;26;20009;-61
2024/04/12 12:28:29;;;;;;;5.18;1.77;;;18.60;99.90;;;;;;5345385;26;20410;-60
2024/04/12 12:30:57;;;;;;;3.95;2.10;;;18.60;99.90;;;;;;5345731;26;19997;-61
2024/04/12 12:33:24;;;;;;;5.55;2.28;;;18.60;99.90;;;;;;5345819;26;20074;-61
2024/04/12 12:35:50;;;;;;;6.20;2.75;;;18.60;99.90;;;;;;5346144;26;20000;-60
2024/04/12 12:38:16;;;;;;;4.53;2.00;;;18.60;99.90;;;;;;5345771;26;20074;-61
2024/04/12 12:40:42;;;;;;;5.00;2.53;;;18.60;99.90;;;;;;5345863;26;20005;-60
2024/04/12 12:43:10;;;;;;;8.90;1.80;;;18.60;99.90;;;;;;5364928;26;20005;-60
2024/04/12 12:45:36;;;;;;;5.32;2.05;;;18.60;99.90;;;;;;5345792;26;20390;-60
2024/04/12 12:48:02;;;;;;;2.22;1.55;;;18.50;99.90;;;;;;5345601;26;20008;-60
2024/04/12 12:50:29;;;;;;;5.38;1.40;;;18.50;99.90;;;;;;5345640;26;20012;-59
2024/04/12 12:52:55;;;;;;;4.70;1.80;;;18.40;99.90;;;;;;5372947;26;19996;-59
2024/04/12 12:55:23;;;;;;;3.33;1.90;;;18.30;99.90;;;;;;5344919;26;20067;-61
2024/04/12 12:57:49;;;;;;;3.85;1.67;;;18.20;99.90;;;;;;5346010;26;20403;-61
2024/04/12 13:00:19;;;;;;;4.43;1.60;;;18.20;99.90;;;;;;5345283;26;20008;-60
2024/04/12 13:02:50;;;;;;;3.40;1.63;;;18.10;99.90;;;;;;5345621;26;20476;-59
2024/04/12 13:05:17;;;;;;;11.82;2.10;;;18.10;99.90;;;;;;5345481;26;20005;-60
2024/04/12 13:07:43;;;;;;;7.22;3.38;;;18.00;99.90;;;;;;5345477;26;20033;-60
2024/04/12 13:10:12;;;;;;;3.78;1.42;;;17.90;99.90;;;;;;5345376;26;20005;-60
2024/04/12 13:12:38;;;;;;;3.25;1.67;;;17.90;99.90;;;;;;5372881;26;20079;-61
2024/04/12 13:15:11;;;;;;;4.25;1.58;;;17.90;99.90;;;;;;5345491;26;20368;-61
2024/04/12 13:17:36;;;;;;;1.85;1.20;;;17.90;99.90;;;;;;5345543;26;20011;-61
2024/04/12 13:20:06;;;;;;;5.28;1.45;;;17.90;99.90;;;;;;5345066;26;20005;-60
2024/04/12 13:22:32;;;;;;;3.05;1.85;;;18.00;99.90;;;;;;5345374;26;20719;-61
2024/04/12 13:24:58;;;;;;;4.60;1.42;;;18.00;99.90;;;;;;5345426;26;20070;-61
2024/04/12 13:27:29;;;;;;;1.80;1.30;;;18.10;99.90;;;;;;5345239;26;20001;-61
2024/04/12 13:29:55;;;;;;;3.67;1.60;;;18.10;99.90;;;;;;5345063;26;20001;-60
2024/04/12 13:32:20;;;;;;;6.63;2.33;;;18.20;99.90;;;;;;5372766;26;20001;-61
2024/04/12 13:34:46;;;;;;;6.28;1.55;;;18.40;99.90;;;;;;5345262;26;20005;-61
2024/04/12 13:37:14;;;;;;;3.95;1.23;;;18.60;99.90;;;;;;5345055;26;20001;-61
2024/04/12 13:39:39;;;;;;;4.70;1.35;;;18.70;99.90;;;;;;5370950;26;20001;-60
2024/04/12 13:42:10;;;;;;;1.88;1.25;;;18.90;99.90;;;;;;5341150;26;20055;-61
2024/04/12 13:52:54;;;;;;;2.00;1.05;;;20.10;99.90;;;;;;5344820;26;20019;-62
2024/04/12 13:55:22;;;;;;;4.22;1.65;;;20.20;99.90;;;;;;5357611;26;20054;-61
2024/04/12 13:57:47;;;;;;;3.35;1.30;;;20.30;99.90;;;;;;5346064;26;20087;-61
2024/04/12 14:00:26;;;;;;;4.30;1.40;;;20.40;99.90;;;;;;5366176;26;20019;-59
2024/04/12 14:02:54;;;;;;;2.33;1.00;;;20.40;99.90;;;;;;5362631;26;19996;-58
2024/04/12 14:05:20;;;;;;;4.63;0.95;;;20.60;99.90;;;;;;5346031;26;20014;-58
2024/04/12 14:07:49;;;;;;;2.35;1.48;;;20.90;99.90;;;;;;5357304;26;19996;-59
2024/04/12 14:10:20;;;;;;;1.58;1.27;;;20.70;99.90;;;;;;5379275;26;20016;-59
2024/04/12 14:12:47;;;;;;;2.60;0.93;;;20.60;99.90;;;;;;5365189;26;20015;-58
2024/04/12 14:15:15;;;;;;;4.05;1.45;;;20.60;99.90;;;;;;5362212;26;19997;-59
2024/04/12 14:17:40;;;;;;;2.35;1.20;;;20.50;99.90;;;;;;5372322;26;20001;-58
2024/04/12 14:20:11;;;;;;;4.80;1.55;;;20.40;99.90;;;;;;5369900;26;20019;-58
2024/04/12 14:22:37;;;;;;;1.83;0.95;;;20.60;99.90;;;;;;5364676;26;20009;-59
2024/04/12 14:25:03;;;;;;;4.22;1.45;;;20.70;99.90;;;;;;5361603;26;19997;-59